createdAt,value
2016-12-06T00:00:20.173Z,17.62
2016-12-06T00:01:30.860Z,17.81
2016-12-06T00:02:41.528Z,17.78
2016-12-06T00:03:52.238Z,17.82
2016-12-06T00:05:02.914Z,17.77
2016-12-06T00:06:13.617Z,17.87
2016-12-06T00:07:24.304Z,17.87
2016-12-06T00:08:35.001Z,17.93
2016-12-06T00:09:45.671Z,17.9
2016-12-06T00:10:56.392Z,17.78
2016-12-06T00:12:08.109Z,17.84
2016-12-06T00:13:19.332Z,17.87
2016-12-06T00:14:30.009Z,17.87
2016-12-06T00:15:40.683Z,17.87
2016-12-06T00:16:51.382Z,17.92
2016-12-06T00:18:02.081Z,17.93
2016-12-06T00:19:12.778Z,17.95
2016-12-06T00:20:23.475Z,17.96
2016-12-06T00:21:34.176Z,17.97
2016-12-06T00:22:44.875Z,17.93
2016-12-06T00:23:55.561Z,17.9
2016-12-06T00:25:06.266Z,18.02
2016-12-06T00:26:16.956Z,18.1
2016-12-06T00:27:27.653Z,18.07
2016-12-06T00:28:38.353Z,18.12
2016-12-06T00:29:49.562Z,18.12
2016-12-06T00:31:00.229Z,18.07
2016-12-06T00:32:10.911Z,18
2016-12-06T00:33:21.597Z,17.95
2016-12-06T00:34:32.271Z,17.97
2016-12-06T00:35:43.497Z,17.87
2016-12-06T00:36:54.185Z,17.9
2016-12-06T00:38:04.906Z,17.81
2016-12-06T00:39:15.597Z,17.92
2016-12-06T00:40:26.273Z,17.96
2016-12-06T00:41:36.944Z,17.93
2016-12-06T00:42:47.668Z,17.95
2016-12-06T00:43:58.353Z,17.95
2016-12-06T00:45:09.022Z,17.93
2016-12-06T00:46:19.682Z,17.82
2016-12-06T00:47:30.365Z,17.78
2016-12-06T00:48:41.065Z,17.74
2016-12-06T00:49:51.755Z,17.68
2016-12-06T00:51:02.437Z,17.63
2016-12-06T00:52:13.129Z,17.49
2016-12-06T00:53:23.850Z,17.58
2016-12-06T00:54:34.554Z,17.59
2016-12-06T00:55:45.215Z,17.55
2016-12-06T00:56:55.904Z,17.55
2016-12-06T00:58:06.579Z,17.52
2016-12-06T00:59:17.291Z,17.55
2016-12-06T01:00:27.974Z,17.58
2016-12-06T01:01:38.642Z,17.51
2016-12-06T01:02:49.359Z,17.58
2016-12-06T01:04:00.047Z,17.52
2016-12-06T01:05:10.756Z,17.46
2016-12-06T01:06:21.441Z,17.46
2016-12-06T01:07:32.127Z,17.44
2016-12-06T01:08:42.835Z,17.44
2016-12-06T01:09:53.533Z,17.4
2016-12-06T01:11:04.337Z,17.48
2016-12-06T01:12:14.994Z,17.4
2016-12-06T01:13:25.680Z,17.3
2016-12-06T01:14:36.344Z,17.33
2016-12-06T01:15:47.024Z,17.31
2016-12-06T01:16:57.735Z,17.36
2016-12-06T01:18:08.412Z,17.33
2016-12-06T01:19:19.074Z,17.4
2016-12-06T01:20:29.740Z,17.4
2016-12-06T01:21:40.438Z,17.51
2016-12-06T01:22:51.105Z,17.51
2016-12-06T01:24:01.796Z,17.55
2016-12-06T01:25:12.485Z,17.64
2016-12-06T01:26:23.164Z,17.64
2016-12-06T01:27:33.847Z,17.66
2016-12-06T01:28:44.583Z,17.66
2016-12-06T01:29:55.773Z,17.62
2016-12-06T01:31:06.471Z,17.58
2016-12-06T01:32:17.648Z,17.63
2016-12-06T01:33:28.318Z,17.51
2016-12-06T01:34:39.018Z,17.46
2016-12-06T01:35:49.714Z,17.43
2016-12-06T01:37:00.384Z,17.4
2016-12-06T01:38:11.072Z,17.37
2016-12-06T01:39:21.754Z,17.36
2016-12-06T01:40:32.433Z,17.21
2016-12-06T01:41:43.138Z,17.16
2016-12-06T01:42:53.840Z,17.21
2016-12-06T01:44:04.506Z,17.16
2016-12-06T01:45:15.213Z,17.16
2016-12-06T01:46:25.876Z,17.21
2016-12-06T01:47:36.558Z,17.19
2016-12-06T01:48:47.466Z,17.19
2016-12-06T01:49:58.223Z,17.14
2016-12-06T01:51:08.940Z,17.16
2016-12-06T01:52:19.634Z,17.23
2016-12-06T01:53:30.315Z,17.22
2016-12-06T01:54:40.988Z,17.19
2016-12-06T01:55:51.656Z,17.19
2016-12-06T01:57:02.877Z,17.15
2016-12-06T01:58:13.549Z,17.11
2016-12-06T01:59:24.219Z,17.08
2016-12-06T02:00:34.903Z,17.03
2016-12-06T02:01:45.597Z,16.94
2016-12-06T02:02:56.261Z,16.96
2016-12-06T02:04:06.949Z,16.91
2016-12-06T02:05:17.643Z,16.94
2016-12-06T02:06:28.303Z,16.94
2016-12-06T02:07:39.005Z,16.96
2016-12-06T02:08:49.711Z,17
2016-12-06T02:10:00.412Z,17
2016-12-06T02:11:11.116Z,17.03
2016-12-06T02:12:21.801Z,17.06
2016-12-06T02:13:32.474Z,16.98
2016-12-06T02:14:43.182Z,17.06
2016-12-06T02:15:53.859Z,17.03
2016-12-06T02:17:04.550Z,17.01
2016-12-06T02:18:15.279Z,16.94
2016-12-06T02:19:25.967Z,16.94
2016-12-06T02:20:36.650Z,16.89
2016-12-06T02:21:47.330Z,16.88
2016-12-06T02:22:58.001Z,16.86
2016-12-06T02:24:09.211Z,16.86
2016-12-06T02:25:19.898Z,16.7
2016-12-06T02:26:30.606Z,16.71
2016-12-06T02:27:41.296Z,16.71
2016-12-06T02:28:51.973Z,16.83
2016-12-06T02:30:02.655Z,16.85
2016-12-06T02:31:13.360Z,16.81
2016-12-06T02:32:24.028Z,16.85
2016-12-06T02:33:34.722Z,16.79
2016-12-06T02:34:45.965Z,16.91
2016-12-06T02:35:56.640Z,16.83
2016-12-06T02:37:07.327Z,16.81
2016-12-06T02:38:18.007Z,16.85
2016-12-06T02:39:28.683Z,16.93
2016-12-06T02:40:39.385Z,16.85
2016-12-06T02:41:50.067Z,16.85
2016-12-06T02:43:00.738Z,16.83
2016-12-06T02:44:11.411Z,16.83
2016-12-06T02:45:22.089Z,16.85
2016-12-06T02:46:32.757Z,16.85
2016-12-06T02:47:43.409Z,16.93
2016-12-06T02:48:54.114Z,16.98
2016-12-06T02:50:04.790Z,17.14
2016-12-06T02:51:15.519Z,17.16
2016-12-06T02:52:26.198Z,17.12
2016-12-06T02:53:36.911Z,17.16
2016-12-06T02:54:47.591Z,17.14
2016-12-06T02:55:58.274Z,17.14
2016-12-06T02:57:08.981Z,17.14
2016-12-06T02:58:19.629Z,17.07
2016-12-06T02:59:30.302Z,16.97
2016-12-06T03:00:41.015Z,17.03
2016-12-06T03:01:51.697Z,16.96
2016-12-06T03:03:02.398Z,16.93
2016-12-06T03:04:13.098Z,16.88
2016-12-06T03:05:23.771Z,16.82
2016-12-06T03:06:34.479Z,16.86
2016-12-06T03:07:45.163Z,16.85
2016-12-06T03:08:56.378Z,16.7
2016-12-06T03:10:07.638Z,16.71
2016-12-06T03:11:18.311Z,16.68
2016-12-06T03:12:28.979Z,16.7
2016-12-06T03:13:39.656Z,16.76
2016-12-06T03:14:50.342Z,16.71
2016-12-06T03:16:01.513Z,16.81
2016-12-06T03:17:12.236Z,16.71
2016-12-06T03:18:22.919Z,16.7
2016-12-06T03:19:34.094Z,16.73
2016-12-06T03:20:44.790Z,16.6
2016-12-06T03:21:55.463Z,16.61
2016-12-06T03:23:06.670Z,16.68
2016-12-06T03:24:17.425Z,16.76
2016-12-06T03:25:28.113Z,16.7
2016-12-06T03:26:39.320Z,16.58
2016-12-06T03:27:50.528Z,16.73
2016-12-06T03:29:01.201Z,16.75
2016-12-06T03:30:11.880Z,16.75
2016-12-06T03:31:22.554Z,16.7
2016-12-06T03:32:33.223Z,16.6
2016-12-06T03:33:43.896Z,16.48
2016-12-06T03:34:55.129Z,16.48
2016-12-06T03:36:06.316Z,16.35
2016-12-06T03:37:16.997Z,16.27
2016-12-06T03:38:27.710Z,16.24
2016-12-06T03:39:38.388Z,16.15
2016-12-06T03:40:49.086Z,16.23
2016-12-06T03:41:59.775Z,16.15
2016-12-06T03:43:10.484Z,16.14
2016-12-06T03:44:21.190Z,16.27
2016-12-06T03:45:31.862Z,16.38
2016-12-06T03:46:42.539Z,16.33
2016-12-06T03:47:53.215Z,16.48
2016-12-06T03:49:03.930Z,16.45
2016-12-06T03:50:14.587Z,16.45
2016-12-06T03:51:25.353Z,16.45
2016-12-06T03:52:36.143Z,16.5
2016-12-06T03:53:46.802Z,16.49
2016-12-06T03:54:57.457Z,16.52
2016-12-06T03:56:08.168Z,16.45
2016-12-06T03:57:18.866Z,16.52
2016-12-06T03:58:29.571Z,16.43
2016-12-06T03:59:40.289Z,16.45
2016-12-06T04:00:50.972Z,16.46
2016-12-06T04:02:01.688Z,16.41
2016-12-06T04:03:12.360Z,16.46
2016-12-06T04:04:23.029Z,16.46
2016-12-06T04:05:33.721Z,16.48
2016-12-06T04:06:44.416Z,16.49
2016-12-06T04:07:56.160Z,16.46
2016-12-06T04:09:06.867Z,16.48
2016-12-06T04:10:17.571Z,16.46
2016-12-06T04:11:28.242Z,16.46
2016-12-06T04:12:38.926Z,16.41
2016-12-06T04:13:49.630Z,16.45
2016-12-06T04:15:00.306Z,16.41
2016-12-06T04:16:10.983Z,16.5
2016-12-06T04:17:21.680Z,16.39
2016-12-06T04:18:32.365Z,16.35
2016-12-06T04:19:43.046Z,16.39
2016-12-06T04:20:53.740Z,16.34
2016-12-06T04:22:04.388Z,16.38
2016-12-06T04:23:15.056Z,16.31
2016-12-06T04:24:25.748Z,16.27
2016-12-06T04:25:36.940Z,16.17
2016-12-06T04:26:48.134Z,16.2
2016-12-06T04:27:58.832Z,16.14
2016-12-06T04:29:09.533Z,16.15
2016-12-06T04:30:20.181Z,16.23
2016-12-06T04:31:30.896Z,16.21
2016-12-06T04:32:41.593Z,16.23
2016-12-06T04:33:52.285Z,16.33
2016-12-06T04:35:02.979Z,16.33
2016-12-06T04:36:13.671Z,16.35
2016-12-06T04:37:24.362Z,16.33
2016-12-06T04:38:35.087Z,16.39
2016-12-06T04:39:45.814Z,16.33
2016-12-06T04:40:56.542Z,16.2
2016-12-06T04:42:07.221Z,16.2
2016-12-06T04:43:17.888Z,16.23
2016-12-06T04:44:28.561Z,16.24
2016-12-06T04:45:39.262Z,16.15
2016-12-06T04:46:49.935Z,16.31
2016-12-06T04:48:01.144Z,16.27
2016-12-06T04:49:11.829Z,16.21
2016-12-06T04:50:22.482Z,16.2
2016-12-06T04:51:33.657Z,16.17
2016-12-06T04:52:44.327Z,16.12
2016-12-06T04:53:55.002Z,16.14
2016-12-06T04:55:05.673Z,16.12
2016-12-06T04:56:16.345Z,16.09
2016-12-06T04:57:27.580Z,16.08
2016-12-06T04:58:38.241Z,16.04
2016-12-06T04:59:48.922Z,16.08
2016-12-06T05:00:59.626Z,16.15
2016-12-06T05:02:10.304Z,16.02
2016-12-06T05:03:21.501Z,16.05
2016-12-06T05:04:32.157Z,15.93
2016-12-06T05:05:42.835Z,16.08
2016-12-06T05:06:54.011Z,16
2016-12-06T05:08:04.697Z,16.04
2016-12-06T05:09:16.417Z,16.05
2016-12-06T05:10:27.114Z,16.08
2016-12-06T05:11:37.803Z,16.07
2016-12-06T05:12:48.483Z,15.97
2016-12-06T05:13:59.172Z,16.05
2016-12-06T05:15:10.350Z,16
2016-12-06T05:16:21.536Z,15.97
2016-12-06T05:17:32.222Z,15.92
2016-12-06T05:18:42.897Z,15.84
2016-12-06T05:19:53.618Z,15.82
2016-12-06T05:21:04.356Z,15.76
2016-12-06T05:22:15.031Z,15.8
2016-12-06T05:23:25.721Z,15.75
2016-12-06T05:24:36.438Z,15.68
2016-12-06T05:25:47.133Z,15.6
2016-12-06T05:26:57.807Z,15.57
2016-12-06T05:28:08.509Z,15.62
2016-12-06T05:29:19.198Z,15.56
2016-12-06T05:30:29.872Z,15.56
2016-12-06T05:31:40.548Z,15.53
2016-12-06T05:32:51.240Z,15.53
2016-12-06T05:34:02.410Z,15.49
2016-12-06T05:35:13.106Z,15.69
2016-12-06T05:36:23.778Z,15.72
2016-12-06T05:37:34.461Z,15.75
2016-12-06T05:38:45.183Z,15.82
2016-12-06T05:39:55.905Z,15.74
2016-12-06T05:41:06.597Z,15.87
2016-12-06T05:42:17.283Z,15.78
2016-12-06T05:43:28.471Z,15.75
2016-12-06T05:44:39.141Z,15.75
2016-12-06T05:45:49.856Z,15.82
2016-12-06T05:47:00.532Z,15.86
2016-12-06T05:48:11.230Z,15.69
2016-12-06T05:49:21.902Z,15.74
2016-12-06T05:50:32.618Z,15.76
2016-12-06T05:51:43.306Z,15.71
2016-12-06T05:52:53.986Z,15.65
2016-12-06T05:54:04.658Z,15.69
2016-12-06T05:55:15.345Z,15.65
2016-12-06T05:56:26.039Z,15.65
2016-12-06T05:57:36.726Z,15.69
2016-12-06T05:58:47.405Z,15.67
2016-12-06T05:59:58.130Z,15.65
2016-12-06T06:01:08.844Z,15.65
2016-12-06T06:02:19.511Z,15.75
2016-12-06T06:03:30.170Z,15.71
2016-12-06T06:04:40.865Z,15.78
2016-12-06T06:05:51.541Z,15.75
2016-12-06T06:07:02.248Z,15.69
2016-12-06T06:08:12.940Z,15.75
2016-12-06T06:09:23.613Z,15.71
2016-12-06T06:10:34.314Z,15.78
2016-12-06T06:11:44.977Z,15.71
2016-12-06T06:12:55.695Z,15.82
2016-12-06T06:14:06.361Z,15.76
2016-12-06T06:15:17.044Z,15.71
2016-12-06T06:16:27.717Z,15.72
2016-12-06T06:17:38.421Z,15.71
2016-12-06T06:18:49.087Z,15.62
2016-12-06T06:19:59.789Z,15.62
2016-12-06T06:21:10.445Z,15.65
2016-12-06T06:22:21.121Z,15.65
2016-12-06T06:23:31.827Z,15.74
2016-12-06T06:24:42.527Z,15.74
2016-12-06T06:25:53.209Z,15.78
2016-12-06T06:27:03.889Z,15.78
2016-12-06T06:28:14.589Z,15.69
2016-12-06T06:29:25.245Z,15.6
2016-12-06T06:30:36.470Z,15.6
2016-12-06T06:31:47.167Z,15.62
2016-12-06T06:32:57.845Z,15.54
2016-12-06T06:34:09.038Z,15.59
2016-12-06T06:35:19.696Z,15.64
2016-12-06T06:36:30.408Z,15.53
2016-12-06T06:37:41.114Z,15.5
2016-12-06T06:38:51.806Z,15.59
2016-12-06T06:40:02.528Z,15.56
2016-12-06T06:41:13.187Z,15.5
2016-12-06T06:42:23.865Z,15.53
2016-12-06T06:43:34.570Z,15.5
2016-12-06T06:44:45.248Z,15.54
2016-12-06T06:45:55.929Z,15.57
2016-12-06T06:47:07.106Z,15.59
2016-12-06T06:48:17.766Z,15.53
2016-12-06T06:49:28.466Z,15.57
2016-12-06T06:50:39.189Z,15.53
2016-12-06T06:51:49.858Z,15.53
2016-12-06T06:53:00.557Z,15.51
2016-12-06T06:54:11.230Z,15.49
2016-12-06T06:55:21.897Z,15.57
2016-12-06T06:56:32.608Z,15.54
2016-12-06T06:57:43.286Z,15.49
2016-12-06T06:58:53.975Z,15.49
2016-12-06T07:00:04.637Z,15.56
2016-12-06T07:01:15.308Z,15.49
2016-12-06T07:02:25.997Z,15.44
2016-12-06T07:03:36.701Z,15.41
2016-12-06T07:04:47.392Z,15.44
2016-12-06T07:05:58.106Z,15.46
2016-12-06T07:07:08.804Z,15.43
2016-12-06T07:08:19.469Z,15.39
2016-12-06T07:09:30.162Z,15.39
2016-12-06T07:10:40.841Z,15.39
2016-12-06T07:11:51.534Z,15.41
2016-12-06T07:13:02.215Z,15.36
2016-12-06T07:14:12.882Z,15.38
2016-12-06T07:15:23.567Z,15.39
2016-12-06T07:16:34.228Z,15.39
2016-12-06T07:17:44.920Z,15.36
2016-12-06T07:18:55.625Z,15.36
2016-12-06T07:20:06.291Z,15.39
2016-12-06T07:21:16.965Z,15.39
2016-12-06T07:22:27.663Z,15.34
2016-12-06T07:23:38.351Z,15.2
2016-12-06T07:24:49.061Z,15.17
2016-12-06T07:25:59.729Z,15.19
2016-12-06T07:27:10.399Z,15.03
2016-12-06T07:28:21.091Z,15.07
2016-12-06T07:29:31.748Z,15.06
2016-12-06T07:30:42.463Z,15.01
2016-12-06T07:31:53.114Z,14.99
2016-12-06T07:33:03.817Z,14.88
2016-12-06T07:34:14.487Z,14.95
2016-12-06T07:35:25.144Z,14.92
2016-12-06T07:36:35.840Z,14.95
2016-12-06T07:37:46.537Z,14.94
2016-12-06T07:38:57.193Z,14.95
2016-12-06T07:40:07.909Z,14.84
2016-12-06T07:41:18.581Z,14.83
2016-12-06T07:42:29.275Z,14.8
2016-12-06T07:43:39.959Z,14.84
2016-12-06T07:44:50.633Z,14.77
2016-12-06T07:46:01.322Z,14.81
2016-12-06T07:47:12.008Z,14.78
2016-12-06T07:48:23.199Z,14.91
2016-12-06T07:49:33.932Z,14.83
2016-12-06T07:50:44.653Z,14.91
2016-12-06T07:51:55.307Z,14.91
2016-12-06T07:53:06.020Z,15.02
2016-12-06T07:54:16.697Z,15.01
2016-12-06T07:55:27.371Z,15.02
2016-12-06T07:56:38.561Z,14.88
2016-12-06T07:57:49.268Z,14.84
2016-12-06T07:58:59.937Z,14.83
2016-12-06T08:00:10.624Z,14.95
2016-12-06T08:01:21.283Z,14.94
2016-12-06T08:02:31.965Z,15.01
2016-12-06T08:03:42.678Z,15.1
2016-12-06T08:04:53.381Z,15.19
2016-12-06T08:06:04.056Z,15.35
2016-12-06T08:07:14.748Z,15.25
2016-12-06T08:08:25.434Z,15.25
2016-12-06T08:09:36.138Z,15.2
2016-12-06T08:10:46.802Z,15.09
2016-12-06T08:11:57.480Z,14.99
2016-12-06T08:13:08.147Z,14.96
2016-12-06T08:14:19.320Z,15.01
2016-12-06T08:15:30.018Z,14.96
2016-12-06T08:16:40.700Z,15.02
2016-12-06T08:17:51.401Z,15.01
2016-12-06T08:19:02.065Z,15.02
2016-12-06T08:20:12.729Z,15.1
2016-12-06T08:21:23.449Z,15.34
2016-12-06T08:22:34.155Z,15.41
2016-12-06T08:23:44.823Z,15.54
2016-12-06T08:24:55.521Z,15.78
2016-12-06T08:26:06.246Z,15.89
2016-12-06T08:27:16.973Z,16.07
2016-12-06T08:28:27.657Z,16.17
2016-12-06T08:29:38.355Z,16.38
2016-12-06T08:30:49.609Z,16.61
2016-12-06T08:32:00.288Z,16.86
2016-12-06T08:33:10.945Z,17.03
2016-12-06T08:34:21.853Z,17.37
2016-12-06T08:35:32.551Z,17.49
2016-12-06T08:36:43.243Z,17.68
2016-12-06T08:37:53.917Z,17.86
2016-12-06T08:39:04.590Z,17.97
2016-12-06T08:40:15.243Z,18.14
2016-12-06T08:41:26.402Z,18.32
2016-12-06T08:42:37.094Z,18.39
2016-12-06T08:43:47.751Z,18.67
2016-12-06T08:44:58.472Z,18.91
2016-12-06T08:46:09.155Z,19.04
2016-12-06T08:47:19.833Z,19.4
2016-12-06T08:48:30.548Z,19.56
2016-12-06T08:49:41.225Z,19.84
2016-12-06T08:50:51.934Z,20.13
2016-12-06T08:52:02.616Z,20.28
2016-12-06T08:53:13.284Z,20.57
2016-12-06T08:54:24.004Z,20.66
2016-12-06T08:55:34.690Z,20.77
2016-12-06T08:56:45.408Z,21.12
2016-12-06T08:57:56.088Z,21.32
2016-12-06T08:59:06.783Z,21.62
2016-12-06T09:00:17.464Z,21.77
2016-12-06T09:01:28.173Z,22.09
2016-12-06T09:02:38.870Z,22.25
2016-12-06T09:03:49.562Z,22.4
2016-12-06T09:05:00.247Z,22.43
2016-12-06T09:06:10.969Z,22.45
2016-12-06T09:07:21.688Z,22.58
2016-12-06T09:08:32.345Z,22.47
2016-12-06T09:09:43.019Z,22.6
2016-12-06T09:10:53.696Z,22.7
2016-12-06T09:12:04.365Z,22.8
2016-12-06T09:13:15.552Z,23.04
2016-12-06T09:14:26.250Z,23.28
2016-12-06T09:15:36.940Z,23.28
2016-12-06T09:16:47.641Z,23.38
2016-12-06T09:17:58.328Z,23.39
2016-12-06T09:19:09.046Z,23.57
2016-12-06T09:20:19.750Z,23.54
2016-12-06T09:21:30.429Z,23.28
2016-12-06T09:22:41.137Z,23.27
2016-12-06T09:23:51.797Z,23.12
2016-12-06T09:25:02.466Z,22.77
2016-12-06T09:26:13.192Z,23
2016-12-06T09:27:23.890Z,23.2
2016-12-06T09:28:34.570Z,23.36
2016-12-06T09:29:45.273Z,23.54
2016-12-06T09:30:56.487Z,23.8
2016-12-06T09:32:07.229Z,24
2016-12-06T09:33:17.908Z,24.28
2016-12-06T09:34:28.587Z,24.62
2016-12-06T09:35:39.314Z,24.57
2016-12-06T09:36:50.022Z,24.87
2016-12-06T09:38:00.716Z,25.06
2016-12-06T09:39:11.422Z,25.3
2016-12-06T09:40:22.133Z,25
2016-12-06T09:41:32.818Z,24.85
2016-12-06T09:42:43.518Z,24.6
2016-12-06T09:43:54.737Z,24.15
2016-12-06T09:45:05.430Z,23.93
2016-12-06T09:46:16.141Z,23.84
2016-12-06T09:47:26.819Z,23.88
2016-12-06T09:48:37.509Z,23.95
2016-12-06T09:49:48.213Z,24.06
2016-12-06T09:50:58.873Z,23.93
2016-12-06T09:52:09.607Z,24.05
2016-12-06T09:53:20.826Z,24.37
2016-12-06T09:54:31.514Z,24.5
2016-12-06T09:55:42.749Z,24.67
2016-12-06T09:56:53.449Z,24.9
2016-12-06T09:58:04.174Z,24.96
2016-12-06T09:59:14.862Z,24.93
2016-12-06T10:00:25.564Z,24.84
2016-12-06T10:01:36.256Z,24.91
2016-12-06T10:02:46.942Z,24.98
2016-12-06T10:03:57.639Z,25.36
2016-12-06T10:05:08.340Z,25.42
2016-12-06T10:06:19.024Z,25.46
2016-12-06T10:07:29.706Z,25.5
2016-12-06T10:08:40.407Z,25.42
2016-12-06T10:09:51.126Z,25.23
2016-12-06T10:11:01.806Z,24.95
2016-12-06T10:12:12.529Z,24.62
2016-12-06T10:13:23.228Z,24.58
2016-12-06T10:14:33.947Z,24.49
2016-12-06T10:15:45.137Z,24.16
2016-12-06T10:16:55.814Z,24.32
2016-12-06T10:18:06.514Z,24.49
2016-12-06T10:19:17.175Z,24.58
2016-12-06T10:20:27.895Z,24.65
2016-12-06T10:21:38.599Z,24.69
2016-12-06T10:22:49.310Z,24.77
2016-12-06T10:24:00.532Z,24.64
2016-12-06T10:25:11.239Z,24.42
2016-12-06T10:26:21.963Z,24.18
2016-12-06T10:27:32.646Z,24.24
2016-12-06T10:28:43.352Z,24.3
2016-12-06T10:29:54.065Z,24.5
2016-12-06T10:31:04.784Z,24.61
2016-12-06T10:32:16.055Z,24.91
2016-12-06T10:33:26.761Z,25.35
2016-12-06T10:34:37.431Z,25.8
2016-12-06T10:35:48.124Z,25.83
2016-12-06T10:36:59.863Z,25.82
2016-12-06T10:38:10.564Z,26.18
2016-12-06T10:39:21.817Z,26.44
2016-12-06T10:40:33.010Z,26.51
2016-12-06T10:41:43.702Z,26.55
2016-12-06T10:42:54.958Z,26.7
2016-12-06T10:44:05.674Z,26.66
2016-12-06T10:45:16.348Z,26.09
2016-12-06T10:46:27.608Z,25.2
2016-12-06T10:47:38.280Z,24.73
2016-12-06T10:48:48.988Z,24.69
2016-12-06T10:50:00.170Z,24.58
2016-12-06T10:51:10.886Z,24.87
2016-12-06T10:52:22.070Z,25.09
2016-12-06T10:53:32.746Z,25.32
2016-12-06T10:54:43.425Z,25.25
2016-12-06T10:55:54.152Z,25.02
2016-12-06T10:57:04.876Z,24.95
2016-12-06T10:58:15.614Z,24.96
2016-12-06T10:59:26.329Z,25.27
2016-12-06T11:00:37.022Z,25.18
2016-12-06T11:01:47.727Z,25.27
2016-12-06T11:02:58.428Z,25.39
2016-12-06T11:04:09.118Z,25.42
2016-12-06T11:05:19.829Z,25.43
2016-12-06T11:06:30.509Z,25.61
2016-12-06T11:07:41.210Z,26.06
2016-12-06T11:08:51.891Z,26.18
2016-12-06T11:10:02.579Z,26.76
2016-12-06T11:11:13.267Z,26.94
2016-12-06T11:12:23.967Z,26.92
2016-12-06T11:13:34.643Z,26.52
2016-12-06T11:14:45.349Z,26.66
2016-12-06T11:15:56.064Z,26.89
2016-12-06T11:17:06.762Z,27.29
2016-12-06T11:18:17.487Z,27.4
2016-12-06T11:19:28.201Z,27.51
2016-12-06T11:20:38.897Z,27.49
2016-12-06T11:21:49.586Z,27.1
2016-12-06T11:23:00.320Z,26.94
2016-12-06T11:24:11.024Z,26.88
2016-12-06T11:25:21.743Z,27.21
2016-12-06T11:26:32.429Z,27.21
2016-12-06T11:27:43.167Z,27.31
2016-12-06T11:28:53.877Z,27.04
2016-12-06T11:30:05.094Z,26.58
2016-12-06T11:31:15.809Z,26.4
2016-12-06T11:32:26.575Z,26.52
2016-12-06T11:33:37.838Z,26.51
2016-12-06T11:34:48.511Z,26.73
2016-12-06T11:35:59.205Z,26.91
2016-12-06T11:37:10.419Z,27.1
2016-12-06T11:38:21.120Z,27.59
2016-12-06T11:39:32.862Z,27.78
2016-12-06T11:40:43.545Z,28.18
2016-12-06T11:41:54.248Z,28.25
2016-12-06T11:43:05.463Z,28.49
2016-12-06T11:44:16.706Z,28.46
2016-12-06T11:45:27.385Z,28.54
2016-12-06T11:46:38.124Z,28.51
2016-12-06T11:47:48.832Z,28.36
2016-12-06T11:49:00.567Z,28.25
2016-12-06T11:50:11.268Z,28.25
2016-12-06T11:51:21.991Z,28.4
2016-12-06T11:52:32.694Z,28.22
2016-12-06T11:53:43.427Z,28.19
2016-12-06T11:54:54.100Z,28.18
2016-12-06T11:56:04.802Z,28.09
2016-12-06T11:57:15.515Z,27.9
2016-12-06T11:58:26.211Z,28.12
2016-12-06T11:59:37.440Z,28.31
2016-12-06T12:00:48.144Z,28.54
2016-12-06T12:01:58.875Z,28.41
2016-12-06T12:03:09.587Z,28.61
2016-12-06T12:04:20.332Z,28.4
2016-12-06T12:05:31.047Z,28.43
2016-12-06T12:06:41.764Z,28.18
2016-12-06T12:07:52.471Z,28.03
2016-12-06T12:09:03.163Z,27.96
2016-12-06T12:10:13.893Z,27.82
2016-12-06T12:11:24.608Z,27.87
2016-12-06T12:12:35.323Z,28.07
2016-12-06T12:13:46.007Z,28.29
2016-12-06T12:14:56.749Z,28.22
2016-12-06T12:16:07.444Z,28.27
2016-12-06T12:17:18.174Z,28.3
2016-12-06T12:18:28.912Z,28.09
2016-12-06T12:19:39.602Z,28.09
2016-12-06T12:20:50.275Z,28.18
2016-12-06T12:22:00.996Z,28.14
2016-12-06T12:23:11.690Z,28.25
2016-12-06T12:24:22.418Z,28.18
2016-12-06T12:25:33.200Z,28.04
2016-12-06T12:26:43.899Z,27.92
2016-12-06T12:27:54.610Z,27.84
2016-12-06T12:29:05.298Z,27.24
2016-12-06T12:30:16.010Z,26.8
2016-12-06T12:31:26.710Z,26.62
2016-12-06T12:32:37.433Z,26.76
2016-12-06T12:33:48.120Z,27.1
2016-12-06T12:34:58.821Z,27.43
2016-12-06T12:36:09.543Z,27.63
2016-12-06T12:37:20.211Z,27.51
2016-12-06T12:38:31.413Z,27.47
2016-12-06T12:39:42.117Z,27.59
2016-12-06T12:40:52.833Z,27.49
2016-12-06T12:42:03.548Z,27.5
2016-12-06T12:43:14.247Z,27.82
2016-12-06T12:44:24.945Z,27.94
2016-12-06T12:45:35.642Z,28
2016-12-06T12:46:46.354Z,28.03
2016-12-06T12:47:57.052Z,27.32
2016-12-06T12:49:07.763Z,26.95
2016-12-06T12:50:18.510Z,26.88
2016-12-06T12:51:29.230Z,26.89
2016-12-06T12:52:39.921Z,27.06
2016-12-06T12:53:50.605Z,27.24
2016-12-06T12:55:01.299Z,27.75
2016-12-06T12:56:11.983Z,28.02
2016-12-06T12:57:22.689Z,27.99
2016-12-06T12:58:33.406Z,27.93
2016-12-06T12:59:44.120Z,27.94
2016-12-06T13:00:54.833Z,28.29
2016-12-06T13:02:05.693Z,28.62
2016-12-06T13:03:16.936Z,28.98
2016-12-06T13:04:27.649Z,29.09
2016-12-06T13:05:38.350Z,29
2016-12-06T13:06:49.072Z,29.12
2016-12-06T13:07:59.778Z,29.15
2016-12-06T13:09:10.487Z,29
2016-12-06T13:10:21.179Z,29.27
2016-12-06T13:11:31.867Z,29.45
2016-12-06T13:12:42.583Z,29.09
2016-12-06T13:13:53.284Z,28.86
2016-12-06T13:15:03.970Z,28.74
2016-12-06T13:16:14.689Z,28.74
2016-12-06T13:17:25.366Z,28.86
2016-12-06T13:18:36.060Z,29.05
2016-12-06T13:19:46.816Z,29.28
2016-12-06T13:20:57.571Z,29.64
2016-12-06T13:22:08.330Z,29.42
2016-12-06T13:23:19.018Z,29.28
2016-12-06T13:24:29.716Z,29.19
2016-12-06T13:25:40.410Z,29.15
2016-12-06T13:26:51.243Z,29.23
2016-12-06T13:28:01.946Z,29.57
2016-12-06T13:29:12.661Z,29.48
2016-12-06T13:30:23.912Z,29.55
2016-12-06T13:31:34.619Z,29.57
2016-12-06T13:32:45.371Z,29.46
2016-12-06T13:33:56.606Z,29.65
2016-12-06T13:35:07.338Z,29.82
2016-12-06T13:36:18.026Z,29.82
2016-12-06T13:37:29.226Z,29.95
2016-12-06T13:38:39.914Z,30.16
2016-12-06T13:39:50.606Z,30.23
2016-12-06T13:41:01.327Z,30.53
2016-12-06T13:42:12.047Z,30.72
2016-12-06T13:43:22.761Z,30.75
2016-12-06T13:44:33.482Z,30.49
2016-12-06T13:45:44.212Z,30.47
2016-12-06T13:46:55.433Z,30.27
2016-12-06T13:48:06.166Z,29.86
2016-12-06T13:49:16.860Z,29.36
2016-12-06T13:50:27.554Z,29.21
2016-12-06T13:51:38.261Z,28.98
2016-12-06T13:52:48.981Z,28.85
2016-12-06T13:54:00.198Z,29.02
2016-12-06T13:55:10.911Z,29.42
2016-12-06T13:56:21.624Z,29.8
2016-12-06T13:57:32.319Z,29.68
2016-12-06T13:58:43.022Z,29.65
2016-12-06T13:59:53.732Z,29.85
2016-12-06T14:01:04.431Z,29.95
2016-12-06T14:02:15.140Z,30.23
2016-12-06T14:03:25.871Z,30.32
2016-12-06T14:04:38.091Z,30.35
2016-12-06T14:05:48.794Z,30.55
2016-12-06T14:06:59.526Z,30.46
2016-12-06T14:08:10.223Z,30.47
2016-12-06T14:09:20.942Z,30.29
2016-12-06T14:10:31.643Z,30.15
2016-12-06T14:11:42.388Z,29.76
2016-12-06T14:12:53.091Z,29.58
2016-12-06T14:14:03.798Z,29.31
2016-12-06T14:15:14.484Z,29.04
2016-12-06T14:16:25.180Z,28.89
2016-12-06T14:17:35.894Z,29.09
2016-12-06T14:18:46.608Z,29.26
2016-12-06T14:19:57.305Z,28.78
2016-12-06T14:21:08.600Z,28.93
2016-12-06T14:22:19.301Z,29.19
2016-12-06T14:23:29.972Z,29.31
2016-12-06T14:24:40.710Z,29.45
2016-12-06T14:25:51.413Z,29.39
2016-12-06T14:27:02.114Z,29.52
2016-12-06T14:28:12.797Z,29.89
2016-12-06T14:29:23.502Z,30.04
2016-12-06T14:30:34.208Z,30.02
2016-12-06T14:31:45.718Z,30.23
2016-12-06T14:32:56.433Z,30.65
2016-12-06T14:34:07.662Z,30.75
2016-12-06T14:35:18.387Z,30.54
2016-12-06T14:36:29.092Z,30.49
2016-12-06T14:37:39.776Z,30.64
2016-12-06T14:38:50.496Z,30.47
2016-12-06T14:40:01.184Z,29.78
2016-12-06T14:41:11.967Z,29.41
2016-12-06T14:42:22.943Z,29.16
2016-12-06T14:43:33.672Z,28.88
2016-12-06T14:44:44.372Z,28.62
2016-12-06T14:45:55.071Z,28.48
2016-12-06T14:47:05.761Z,28.54
2016-12-06T14:48:16.443Z,28.54
2016-12-06T14:49:27.133Z,28.62
2016-12-06T14:50:38.386Z,28.49
2016-12-06T14:51:49.088Z,28.68
2016-12-06T14:52:59.794Z,28.66
2016-12-06T14:54:10.482Z,28.36
2016-12-06T14:55:21.193Z,28.31
2016-12-06T14:56:31.894Z,27.96
2016-12-06T14:57:42.600Z,27.74
2016-12-06T14:58:53.326Z,27.94
2016-12-06T15:00:04.044Z,28.17
2016-12-06T15:01:14.740Z,28.7
2016-12-06T15:02:25.447Z,29.15
2016-12-06T15:03:36.161Z,29.23
2016-12-06T15:04:46.878Z,29.23
2016-12-06T15:05:58.458Z,29.45
2016-12-06T15:07:09.163Z,29.3
2016-12-06T15:08:19.887Z,29.55
2016-12-06T15:09:30.597Z,29.73
2016-12-06T15:10:41.310Z,29.92
2016-12-06T15:11:52.011Z,30.23
2016-12-06T15:13:02.715Z,30.62
2016-12-06T15:14:13.409Z,30.62